Francitas, Texas
Current Conditions -  °F | °C
As of 11:53 PM on Thursday 18 Dec 2014 (Local Time) from KPSX Reporting Station
Overcast Overcast  
Wind Chill: 65°   Ceiling: 1200
Heat Index: 65°   Visibility: 9mi
Dew Point: 64°   Wind: 8mph
Humidity: 97%   Direction: 80°E
Pressure: 29.99"   Gusts: NA
Location:  28.86°N, 96.34°W
Report Text: KPSX 190553Z AUTO 08007KT 9SM FEW005 OVC012 18/18 A2999 RMK AO2 RAE14B36E48 SLP156 P0000 60031 T01830178 10217 20183 402390183 58004
Loading
Personal Weather Stations






























Interactive Weather Map New forecast layout! Learn more

10-Day Weather Forecast

Advertisements
Track Severe Weather on mobile